sensor_id;sensor_type;location;lat;lon;timestamp;P1;durP1;ratioP1;P2;durP2;ratioP2
3293;SDS011;1659;51.470;6.770;2023-05-10T00:00:46;19.27;;;8.83;;
3293;SDS011;1659;51.470;6.770;2023-05-10T00:03:12;16.90;;;9.70;;
3293;SDS011;1659;51.470;6.770;2023-05-10T00:05:39;24.63;;;10.50;;
3293;SDS011;1659;51.470;6.770;2023-05-10T00:08:05;22.83;;;9.50;;
3293;SDS011;1659;51.470;6.770;2023-05-10T00:10:32;19.60;;;9.60;;
3293;SDS011;1659;51.470;6.770;2023-05-10T00:13:00;15.30;;;8.23;;
3293;SDS011;1659;51.470;6.770;2023-05-10T00:15:26;13.73;;;8.23;;
3293;SDS011;1659;51.470;6.770;2023-05-10T00:17:55;17.60;;;7.97;;
3293;SDS011;1659;51.470;6.770;2023-05-10T00:20:22;14.23;;;7.50;;
3293;SDS011;1659;51.470;6.770;2023-05-10T00:22:48;19.93;;;8.37;;
3293;SDS011;1659;51.470;6.770;2023-05-10T00:25:15;23.87;;;9.17;;
3293;SDS011;1659;51.470;6.770;2023-05-10T00:27:42;22.07;;;9.73;;
3293;SDS011;1659;51.470;6.770;2023-05-10T00:30:10;22.57;;;10.57;;
3293;SDS011;1659;51.470;6.770;2023-05-10T00:32:36;17.23;;;9.87;;
3293;SDS011;1659;51.470;6.770;2023-05-10T00:35:03;23.33;;;9.67;;
3293;SDS011;1659;51.470;6.770;2023-05-10T00:37:30;24.63;;;10.17;;
3293;SDS011;1659;51.470;6.770;2023-05-10T00:39:57;22.63;;;10.70;;
3293;SDS011;1659;51.470;6.770;2023-05-10T00:42:23;22.30;;;11.20;;
3293;SDS011;1659;51.470;6.770;2023-05-10T00:44:50;17.57;;;9.03;;
3293;SDS011;1659;51.470;6.770;2023-05-10T00:47:17;21.83;;;9.77;;
3293;SDS011;1659;51.470;6.770;2023-05-10T00:49:44;17.80;;;9.17;;
3293;SDS011;1659;51.470;6.770;2023-05-10T00:52:12;23.63;;;10.03;;
3293;SDS011;1659;51.470;6.770;2023-05-10T00:54:38;19.80;;;8.80;;
3293;SDS011;1659;51.470;6.770;2023-05-10T00:57:05;21.80;;;10.00;;
3293;SDS011;1659;51.470;6.770;2023-05-10T00:59:32;24.17;;;11.33;;
3293;SDS011;1659;51.470;6.770;2023-05-10T01:01:58;20.87;;;9.67;;
3293;SDS011;1659;51.470;6.770;2023-05-10T01:04:26;26.20;;;11.83;;
3293;SDS011;1659;51.470;6.770;2023-05-10T01:06:53;20.20;;;9.57;;
3293;SDS011;1659;51.470;6.770;2023-05-10T01:12:51;19.23;;;9.50;;
3293;SDS011;1659;51.470;6.770;2023-05-10T01:15:17;24.20;;;11.60;;
3293;SDS011;1659;51.470;6.770;2023-05-10T01:17:46;22.57;;;11.07;;
3293;SDS011;1659;51.470;6.770;2023-05-10T01:20:15;26.57;;;10.83;;
3293;SDS011;1659;51.470;6.770;2023-05-10T01:22:50;25.00;;;11.10;;
3293;SDS011;1659;51.470;6.770;2023-05-10T01:25:51;25.37;;;12.10;;
3293;SDS011;1659;51.470;6.770;2023-05-10T01:28:38;23.00;;;10.50;;
3293;SDS011;1659;51.470;6.770;2023-05-10T01:31:30;18.27;;;9.30;;
3293;SDS011;1659;51.470;6.770;2023-05-10T01:34:11;20.80;;;9.00;;
3293;SDS011;1659;51.470;6.770;2023-05-10T01:36:43;22.20;;;10.90;;
3293;SDS011;1659;51.470;6.770;2023-05-10T01:39:15;25.57;;;9.50;;
3293;SDS011;1659;51.470;6.770;2023-05-10T01:41:48;20.90;;;9.50;;
3293;SDS011;1659;51.470;6.770;2023-05-10T01:44:20;23.03;;;11.10;;
3293;SDS011;1659;51.470;6.770;2023-05-10T01:46:55;15.70;;;8.80;;
3293;SDS011;1659;51.470;6.770;2023-05-10T01:49:30;15.83;;;8.33;;
3293;SDS011;1659;51.470;6.770;2023-05-10T01:52:04;17.97;;;8.90;;
3293;SDS011;1659;51.470;6.770;2023-05-10T01:54:34;24.27;;;10.50;;
3293;SDS011;1659;51.470;6.770;2023-05-10T01:57:03;24.57;;;9.67;;
3293;SDS011;1659;51.470;6.770;2023-05-10T01:59:33;20.80;;;9.03;;
3293;SDS011;1659;51.470;6.770;2023-05-10T02:02:04;25.07;;;11.13;;
3293;SDS011;1659;51.470;6.770;2023-05-10T02:04:33;21.27;;;10.30;;
3293;SDS011;1659;51.470;6.770;2023-05-10T02:07:03;21.73;;;9.13;;
3293;SDS011;1659;51.470;6.770;2023-05-10T02:09:32;25.00;;;10.80;;
3293;SDS011;1659;51.470;6.770;2023-05-10T02:11:59;20.80;;;10.13;;
3293;SDS011;1659;51.470;6.770;2023-05-10T02:14:28;23.97;;;10.93;;
3293;SDS011;1659;51.470;6.770;2023-05-10T02:16:56;21.20;;;10.13;;
3293;SDS011;1659;51.470;6.770;2023-05-10T02:19:24;23.90;;;10.93;;
3293;SDS011;1659;51.470;6.770;2023-05-10T02:21:53;29.60;;;13.43;;
3293;SDS011;1659;51.470;6.770;2023-05-10T02:24:21;25.17;;;12.67;;
3293;SDS011;1659;51.470;6.770;2023-05-10T02:26:50;30.37;;;13.13;;
3293;SDS011;1659;51.470;6.770;2023-05-10T02:29:20;25.30;;;11.83;;
3293;SDS011;1659;51.470;6.770;2023-05-10T02:31:48;27.30;;;11.43;;
3293;SDS011;1659;51.470;6.770;2023-05-10T02:34:18;28.77;;;14.37;;
3293;SDS011;1659;51.470;6.770;2023-05-10T02:36:46;28.20;;;12.63;;
3293;SDS011;1659;51.470;6.770;2023-05-10T02:39:15;28.33;;;11.80;;
3293;SDS011;1659;51.470;6.770;2023-05-10T02:41:44;32.50;;;11.73;;
3293;SDS011;1659;51.470;6.770;2023-05-10T02:44:12;26.27;;;11.97;;
3293;SDS011;1659;51.470;6.770;2023-05-10T02:46:41;27.77;;;11.63;;
3293;SDS011;1659;51.470;6.770;2023-05-10T02:49:08;33.07;;;12.20;;
3293;SDS011;1659;51.470;6.770;2023-05-10T02:51:35;31.47;;;12.57;;
3293;SDS011;1659;51.470;6.770;2023-05-10T02:54:07;27.17;;;11.23;;
3293;SDS011;1659;51.470;6.770;2023-05-10T02:56:40;27.20;;;12.70;;
3293;SDS011;1659;51.470;6.770;2023-05-10T02:59:13;32.63;;;12.80;;
3293;SDS011;1659;51.470;6.770;2023-05-10T03:01:39;30.10;;;12.47;;
3293;SDS011;1659;51.470;6.770;2023-05-10T03:04:06;28.60;;;12.27;;
3293;SDS011;1659;51.470;6.770;2023-05-10T03:06:33;31.27;;;11.90;;
3293;SDS011;1659;51.470;6.770;2023-05-10T03:08:59;41.87;;;13.67;;
3293;SDS011;1659;51.470;6.770;2023-05-10T03:11:30;35.53;;;14.47;;
3293;SDS011;1659;51.470;6.770;2023-05-10T03:14:10;29.03;;;13.70;;
3293;SDS011;1659;51.470;6.770;2023-05-10T03:16:50;28.57;;;13.20;;
3293;SDS011;1659;51.470;6.770;2023-05-10T03:19:24;34.93;;;13.70;;
3293;SDS011;1659;51.470;6.770;2023-05-10T03:21:53;28.40;;;14.00;;
3293;SDS011;1659;51.470;6.770;2023-05-10T03:24:24;32.47;;;13.83;;
3293;SDS011;1659;51.470;6.770;2023-05-10T03:26:54;31.83;;;12.73;;
3293;SDS011;1659;51.470;6.770;2023-05-10T03:29:24;34.20;;;13.50;;
3293;SDS011;1659;51.470;6.770;2023-05-10T03:31:52;37.93;;;15.93;;
3293;SDS011;1659;51.470;6.770;2023-05-10T03:34:22;32.13;;;14.73;;
3293;SDS011;1659;51.470;6.770;2023-05-10T03:36:49;33.80;;;14.17;;
3293;SDS011;1659;51.470;6.770;2023-05-10T03:39:16;33.67;;;14.00;;
3293;SDS011;1659;51.470;6.770;2023-05-10T03:41:43;38.43;;;16.57;;
3293;SDS011;1659;51.470;6.770;2023-05-10T03:44:10;33.10;;;15.90;;
3293;SDS011;1659;51.470;6.770;2023-05-10T03:46:37;35.10;;;14.97;;
3293;SDS011;1659;51.470;6.770;2023-05-10T03:49:04;40.67;;;16.60;;
3293;SDS011;1659;51.470;6.770;2023-05-10T03:51:30;40.63;;;17.17;;
3293;SDS011;1659;51.470;6.770;2023-05-10T03:53:57;38.80;;;16.03;;
3293;SDS011;1659;51.470;6.770;2023-05-10T03:56:24;34.70;;;15.90;;
3293;SDS011;1659;51.470;6.770;2023-05-10T03:58:50;39.10;;;14.67;;
3293;SDS011;1659;51.470;6.770;2023-05-10T04:01:17;38.20;;;17.10;;
3293;SDS011;1659;51.470;6.770;2023-05-10T04:03:45;38.10;;;16.03;;
3293;SDS011;1659;51.470;6.770;2023-05-10T04:06:11;37.57;;;15.10;;
3293;SDS011;1659;51.470;6.770;2023-05-10T04:08:38;35.80;;;16.77;;
3293;SDS011;1659;51.470;6.770;2023-05-10T04:11:04;36.93;;;15.37;;
3293;SDS011;1659;51.470;6.770;2023-05-10T04:13:32;42.43;;;16.43;;
3293;SDS011;1659;51.470;6.770;2023-05-10T04:15:59;39.53;;;17.00;;
3293;SDS011;1659;51.470;6.770;2023-05-10T04:18:25;39.03;;;15.10;;
3293;SDS011;1659;51.470;6.770;2023-05-10T04:20:53;48.03;;;16.87;;
3293;SDS011;1659;51.470;6.770;2023-05-10T04:23:20;32.47;;;13.47;;
3293;SDS011;1659;51.470;6.770;2023-05-10T04:25:46;44.50;;;16.63;;
3293;SDS011;1659;51.470;6.770;2023-05-10T04:28:13;33.67;;;14.60;;
3293;SDS011;1659;51.470;6.770;2023-05-10T04:30:40;37.40;;;15.80;;
3293;SDS011;1659;51.470;6.770;2023-05-10T04:33:06;43.50;;;17.77;;
3293;SDS011;1659;51.470;6.770;2023-05-10T04:35:33;48.57;;;19.33;;
3293;SDS011;1659;51.470;6.770;2023-05-10T04:38:01;48.07;;;21.07;;
3293;SDS011;1659;51.470;6.770;2023-05-10T04:40:27;50.60;;;19.23;;
3293;SDS011;1659;51.470;6.770;2023-05-10T04:42:54;40.80;;;18.77;;
3293;SDS011;1659;51.470;6.770;2023-05-10T04:45:20;44.70;;;19.13;;
3293;SDS011;1659;51.470;6.770;2023-05-10T04:47:47;51.10;;;19.87;;
3293;SDS011;1659;51.470;6.770;2023-05-10T04:50:13;48.87;;;22.67;;
3293;SDS011;1659;51.470;6.770;2023-05-10T04:52:40;51.33;;;23.10;;
3293;SDS011;1659;51.470;6.770;2023-05-10T04:55:08;54.27;;;19.50;;
3293;SDS011;1659;51.470;6.770;2023-05-10T04:57:35;47.23;;;19.10;;
3293;SDS011;1659;51.470;6.770;2023-05-10T05:00:02;50.03;;;21.30;;
3293;SDS011;1659;51.470;6.770;2023-05-10T05:02:29;48.03;;;19.43;;
3293;SDS011;1659;51.470;6.770;2023-05-10T05:04:55;41.07;;;17.50;;
3293;SDS011;1659;51.470;6.770;2023-05-10T05:07:22;44.13;;;20.40;;
3293;SDS011;1659;51.470;6.770;2023-05-10T05:09:49;58.13;;;21.87;;
3293;SDS011;1659;51.470;6.770;2023-05-10T05:12:17;44.87;;;19.63;;
3293;SDS011;1659;51.470;6.770;2023-05-10T05:14:43;43.37;;;19.20;;
3293;SDS011;1659;51.470;6.770;2023-05-10T05:17:10;50.20;;;20.60;;
3293;SDS011;1659;51.470;6.770;2023-05-10T05:19:36;50.00;;;21.03;;
3293;SDS011;1659;51.470;6.770;2023-05-10T05:22:03;49.83;;;18.20;;
3293;SDS011;1659;51.470;6.770;2023-05-10T05:24:34;51.23;;;21.10;;
3293;SDS011;1659;51.470;6.770;2023-05-10T05:27:02;57.37;;;21.67;;
3293;SDS011;1659;51.470;6.770;2023-05-10T05:29:30;51.33;;;17.03;;
3293;SDS011;1659;51.470;6.770;2023-05-10T05:31:56;47.43;;;18.83;;
3293;SDS011;1659;51.470;6.770;2023-05-10T05:34:23;58.73;;;21.07;;
3293;SDS011;1659;51.470;6.770;2023-05-10T05:36:50;62.87;;;22.30;;
3293;SDS011;1659;51.470;6.770;2023-05-10T05:39:16;62.13;;;22.03;;
3293;SDS011;1659;51.470;6.770;2023-05-10T05:41:43;62.93;;;22.00;;
3293;SDS011;1659;51.470;6.770;2023-05-10T05:44:09;51.80;;;19.87;;
3293;SDS011;1659;51.470;6.770;2023-05-10T05:46:37;57.37;;;20.43;;
3293;SDS011;1659;51.470;6.770;2023-05-10T05:49:04;48.70;;;21.03;;
3293;SDS011;1659;51.470;6.770;2023-05-10T05:51:30;59.77;;;22.20;;
3293;SDS011;1659;51.470;6.770;2023-05-10T05:53:57;49.43;;;22.07;;
3293;SDS011;1659;51.470;6.770;2023-05-10T05:56:23;55.87;;;21.97;;
3293;SDS011;1659;51.470;6.770;2023-05-10T05:58:50;54.50;;;22.50;;
3293;SDS011;1659;51.470;6.770;2023-05-10T06:01:17;60.10;;;23.80;;
3293;SDS011;1659;51.470;6.770;2023-05-10T06:03:44;64.03;;;23.20;;
3293;SDS011;1659;51.470;6.770;2023-05-10T06:06:11;57.43;;;22.47;;
3293;SDS011;1659;51.470;6.770;2023-05-10T06:08:38;62.30;;;23.60;;
3293;SDS011;1659;51.470;6.770;2023-05-10T06:11:05;69.47;;;23.67;;
3293;SDS011;1659;51.470;6.770;2023-05-10T06:13:31;68.17;;;25.47;;
3293;SDS011;1659;51.470;6.770;2023-05-10T06:16:00;61.43;;;24.53;;
3293;SDS011;1659;51.470;6.770;2023-05-10T06:18:27;61.50;;;23.50;;
3293;SDS011;1659;51.470;6.770;2023-05-10T06:20:54;70.93;;;26.30;;
3293;SDS011;1659;51.470;6.770;2023-05-10T06:23:21;58.47;;;24.90;;
3293;SDS011;1659;51.470;6.770;2023-05-10T06:25:48;69.37;;;25.60;;
3293;SDS011;1659;51.470;6.770;2023-05-10T06:28:14;72.30;;;25.67;;
3293;SDS011;1659;51.470;6.770;2023-05-10T06:30:41;55.93;;;23.90;;
3293;SDS011;1659;51.470;6.770;2023-05-10T06:33:08;67.37;;;26.10;;
3293;SDS011;1659;51.470;6.770;2023-05-10T06:35:34;60.03;;;22.03;;
3293;SDS011;1659;51.470;6.770;2023-05-10T06:38:03;64.93;;;25.00;;
3293;SDS011;1659;51.470;6.770;2023-05-10T06:40:29;66.53;;;24.63;;
3293;SDS011;1659;51.470;6.770;2023-05-10T06:42:56;70.23;;;24.57;;
3293;SDS011;1659;51.470;6.770;2023-05-10T06:45:23;68.83;;;23.90;;
3293;SDS011;1659;51.470;6.770;2023-05-10T06:47:49;69.00;;;25.00;;
3293;SDS011;1659;51.470;6.770;2023-05-10T06:50:16;54.43;;;24.17;;
3293;SDS011;1659;51.470;6.770;2023-05-10T06:52:42;60.00;;;23.37;;
3293;SDS011;1659;51.470;6.770;2023-05-10T06:55:10;67.57;;;24.90;;
3293;SDS011;1659;51.470;6.770;2023-05-10T06:57:37;67.17;;;23.83;;
3293;SDS011;1659;51.470;6.770;2023-05-10T07:00:04;63.63;;;23.27;;
3293;SDS011;1659;51.470;6.770;2023-05-10T07:02:32;54.27;;;22.73;;
3293;SDS011;1659;51.470;6.770;2023-05-10T07:04:58;62.33;;;24.13;;
3293;SDS011;1659;51.470;6.770;2023-05-10T07:07:25;59.73;;;24.67;;
3293;SDS011;1659;51.470;6.770;2023-05-10T07:09:51;72.20;;;27.20;;
3293;SDS011;1659;51.470;6.770;2023-05-10T07:12:19;63.83;;;24.20;;
3293;SDS011;1659;51.470;6.770;2023-05-10T07:14:46;64.93;;;25.90;;
3293;SDS011;1659;51.470;6.770;2023-05-10T07:17:12;65.80;;;25.83;;
3293;SDS011;1659;51.470;6.770;2023-05-10T07:19:39;60.63;;;25.67;;
3293;SDS011;1659;51.470;6.770;2023-05-10T07:22:05;72.77;;;25.70;;
3293;SDS011;1659;51.470;6.770;2023-05-10T07:24:33;66.10;;;23.10;;
3293;SDS011;1659;51.470;6.770;2023-05-10T07:26:59;67.00;;;23.27;;
3293;SDS011;1659;51.470;6.770;2023-05-10T07:29:27;56.50;;;21.27;;
3293;SDS011;1659;51.470;6.770;2023-05-10T07:31:54;58.90;;;22.80;;
3293;SDS011;1659;51.470;6.770;2023-05-10T07:34:21;49.63;;;18.50;;
3293;SDS011;1659;51.470;6.770;2023-05-10T07:36:47;53.70;;;19.70;;
3293;SDS011;1659;51.470;6.770;2023-05-10T07:39:14;48.30;;;19.50;;
3293;SDS011;1659;51.470;6.770;2023-05-10T07:41:41;51.60;;;24.90;;
3293;SDS011;1659;51.470;6.770;2023-05-10T07:44:08;63.63;;;27.67;;
3293;SDS011;1659;51.470;6.770;2023-05-10T07:46:36;54.67;;;21.70;;
3293;SDS011;1659;51.470;6.770;2023-05-10T07:49:02;58.73;;;24.20;;
3293;SDS011;1659;51.470;6.770;2023-05-10T07:51:30;50.37;;;19.80;;
3293;SDS011;1659;51.470;6.770;2023-05-10T07:53:56;47.57;;;21.57;;
3293;SDS011;1659;51.470;6.770;2023-05-10T07:56:23;60.20;;;22.10;;
3293;SDS011;1659;51.470;6.770;2023-05-10T07:58:52;66.63;;;23.37;;
3293;SDS011;1659;51.470;6.770;2023-05-10T08:01:19;65.23;;;21.20;;
3293;SDS011;1659;51.470;6.770;2023-05-10T08:03:47;49.00;;;19.70;;
3293;SDS011;1659;51.470;6.770;2023-05-10T08:06:14;57.10;;;19.77;;
3293;SDS011;1659;51.470;6.770;2023-05-10T08:08:41;49.90;;;20.67;;
3293;SDS011;1659;51.470;6.770;2023-05-10T08:11:08;48.27;;;20.77;;
3293;SDS011;1659;51.470;6.770;2023-05-10T08:13:34;52.60;;;20.47;;
3293;SDS011;1659;51.470;6.770;2023-05-10T08:16:01;47.57;;;19.23;;
3293;SDS011;1659;51.470;6.770;2023-05-10T08:18:27;46.67;;;18.57;;
3293;SDS011;1659;51.470;6.770;2023-05-10T08:20:55;45.13;;;18.93;;
3293;SDS011;1659;51.470;6.770;2023-05-10T08:23:22;43.00;;;17.50;;
3293;SDS011;1659;51.470;6.770;2023-05-10T08:25:48;47.43;;;17.77;;
3293;SDS011;1659;51.470;6.770;2023-05-10T08:28:15;47.60;;;19.33;;
3293;SDS011;1659;51.470;6.770;2023-05-10T08:30:41;46.70;;;17.30;;
3293;SDS011;1659;51.470;6.770;2023-05-10T08:33:08;42.50;;;19.90;;
3293;SDS011;1659;51.470;6.770;2023-05-10T08:35:34;44.13;;;18.10;;
3293;SDS011;1659;51.470;6.770;2023-05-10T08:38:02;43.13;;;17.50;;
3293;SDS011;1659;51.470;6.770;2023-05-10T08:40:29;41.67;;;17.93;;
3293;SDS011;1659;51.470;6.770;2023-05-10T08:42:58;43.03;;;16.93;;
3293;SDS011;1659;51.470;6.770;2023-05-10T08:45:31;43.07;;;19.20;;
3293;SDS011;1659;51.470;6.770;2023-05-10T08:47:59;36.80;;;17.10;;
3293;SDS011;1659;51.470;6.770;2023-05-10T08:50:27;34.83;;;18.03;;
3293;SDS011;1659;51.470;6.770;2023-05-10T08:52:55;31.20;;;14.93;;
3293;SDS011;1659;51.470;6.770;2023-05-10T08:55:27;36.93;;;13.80;;
3293;SDS011;1659;51.470;6.770;2023-05-10T08:57:54;31.20;;;15.47;;
3293;SDS011;1659;51.470;6.770;2023-05-10T09:00:21;31.90;;;16.07;;
3293;SDS011;1659;51.470;6.770;2023-05-10T09:02:49;32.40;;;16.00;;
3293;SDS011;1659;51.470;6.770;2023-05-10T09:05:16;35.70;;;16.60;;
3293;SDS011;1659;51.470;6.770;2023-05-10T09:07:42;29.47;;;15.37;;
3293;SDS011;1659;51.470;6.770;2023-05-10T09:10:09;32.47;;;14.63;;
3293;SDS011;1659;51.470;6.770;2023-05-10T09:12:38;30.97;;;15.87;;
3293;SDS011;1659;51.470;6.770;2023-05-10T09:15:05;34.97;;;15.53;;
3293;SDS011;1659;51.470;6.770;2023-05-10T09:17:35;29.47;;;13.93;;
3293;SDS011;1659;51.470;6.770;2023-05-10T09:20:03;27.80;;;14.00;;
3293;SDS011;1659;51.470;6.770;2023-05-10T09:22:30;28.73;;;13.53;;
3293;SDS011;1659;51.470;6.770;2023-05-10T09:25:03;29.60;;;13.90;;
3293;SDS011;1659;51.470;6.770;2023-05-10T09:27:31;25.30;;;14.60;;
3293;SDS011;1659;51.470;6.770;2023-05-10T09:29:59;27.10;;;12.77;;
3293;SDS011;1659;51.470;6.770;2023-05-10T09:32:35;24.13;;;13.10;;
3293;SDS011;1659;51.470;6.770;2023-05-10T09:35:05;25.50;;;11.97;;
3293;SDS011;1659;51.470;6.770;2023-05-10T09:37:35;24.37;;;13.63;;
3293;SDS011;1659;51.470;6.770;2023-05-10T09:40:05;27.17;;;11.50;;
3293;SDS011;1659;51.470;6.770;2023-05-10T09:42:33;21.23;;;11.43;;
3293;SDS011;1659;51.470;6.770;2023-05-10T09:45:03;26.90;;;13.33;;
3293;SDS011;1659;51.470;6.770;2023-05-10T09:47:31;30.40;;;12.63;;
3293;SDS011;1659;51.470;6.770;2023-05-10T09:49:58;28.63;;;14.07;;
3293;SDS011;1659;51.470;6.770;2023-05-10T09:52:28;28.40;;;13.67;;
3293;SDS011;1659;51.470;6.770;2023-05-10T09:54:55;30.97;;;13.60;;
3293;SDS011;1659;51.470;6.770;2023-05-10T09:57:22;22.67;;;12.80;;
3293;SDS011;1659;51.470;6.770;2023-05-10T09:59:50;25.10;;;12.90;;
3293;SDS011;1659;51.470;6.770;2023-05-10T10:02:20;28.03;;;13.20;;
3293;SDS011;1659;51.470;6.770;2023-05-10T10:04:49;29.33;;;14.67;;
3293;SDS011;1659;51.470;6.770;2023-05-10T10:07:17;24.10;;;12.87;;
3293;SDS011;1659;51.470;6.770;2023-05-10T10:09:48;29.23;;;15.27;;
3293;SDS011;1659;51.470;6.770;2023-05-10T10:12:15;28.73;;;13.57;;
3293;SDS011;1659;51.470;6.770;2023-05-10T10:14:42;27.50;;;13.83;;
3293;SDS011;1659;51.470;6.770;2023-05-10T10:17:09;21.50;;;12.53;;
3293;SDS011;1659;51.470;6.770;2023-05-10T10:19:37;25.87;;;12.20;;
3293;SDS011;1659;51.470;6.770;2023-05-10T10:22:05;27.60;;;13.60;;
3293;SDS011;1659;51.470;6.770;2023-05-10T10:24:31;26.30;;;12.17;;
3293;SDS011;1659;51.470;6.770;2023-05-10T10:27:00;25.97;;;12.93;;
3293;SDS011;1659;51.470;6.770;2023-05-10T10:29:35;21.80;;;11.90;;
3293;SDS011;1659;51.470;6.770;2023-05-10T10:32:09;22.03;;;12.97;;
3293;SDS011;1659;51.470;6.770;2023-05-10T10:34:46;28.47;;;13.60;;
3293;SDS011;1659;51.470;6.770;2023-05-10T10:37:13;23.90;;;11.37;;
3293;SDS011;1659;51.470;6.770;2023-05-10T10:39:40;26.30;;;12.70;;
3293;SDS011;1659;51.470;6.770;2023-05-10T10:42:06;27.70;;;11.90;;
3293;SDS011;1659;51.470;6.770;2023-05-10T10:44:33;19.70;;;11.90;;
3293;SDS011;1659;51.470;6.770;2023-05-10T10:47:06;21.70;;;11.97;;
3293;SDS011;1659;51.470;6.770;2023-05-10T10:49:44;22.47;;;12.60;;
3293;SDS011;1659;51.470;6.770;2023-05-10T10:52:21;24.77;;;13.63;;
3293;SDS011;1659;51.470;6.770;2023-05-10T10:54:51;28.00;;;13.87;;
3293;SDS011;1659;51.470;6.770;2023-05-10T10:57:20;27.83;;;13.87;;
3293;SDS011;1659;51.470;6.770;2023-05-10T10:59:47;29.40;;;14.70;;
3293;SDS011;1659;51.470;6.770;2023-05-10T11:05:34;26.00;;;13.27;;
3293;SDS011;1659;51.470;6.770;2023-05-10T11:08:07;28.03;;;13.97;;
3293;SDS011;1659;51.470;6.770;2023-05-10T11:10:38;29.77;;;14.10;;
3293;SDS011;1659;51.470;6.770;2023-05-10T11:13:05;27.63;;;13.70;;
3293;SDS011;1659;51.470;6.770;2023-05-10T11:15:34;31.53;;;15.70;;
3293;SDS011;1659;51.470;6.770;2023-05-10T11:18:16;27.50;;;15.50;;
3293;SDS011;1659;51.470;6.770;2023-05-10T11:20:46;27.60;;;12.80;;
3293;SDS011;1659;51.470;6.770;2023-05-10T11:23:16;26.43;;;13.80;;
3293;SDS011;1659;51.470;6.770;2023-05-10T11:25:44;27.30;;;14.23;;
3293;SDS011;1659;51.470;6.770;2023-05-10T11:28:12;20.83;;;12.13;;
3293;SDS011;1659;51.470;6.770;2023-05-10T11:30:39;20.67;;;11.33;;
3293;SDS011;1659;51.470;6.770;2023-05-10T11:33:08;21.80;;;12.43;;
3293;SDS011;1659;51.470;6.770;2023-05-10T11:35:38;29.67;;;13.93;;
3293;SDS011;1659;51.470;6.770;2023-05-10T11:38:07;21.03;;;12.60;;
3293;SDS011;1659;51.470;6.770;2023-05-10T11:40:34;18.80;;;12.30;;
3293;SDS011;1659;51.470;6.770;2023-05-10T11:43:01;17.17;;;10.70;;
3293;SDS011;1659;51.470;6.770;2023-05-10T11:45:29;18.30;;;11.00;;
3293;SDS011;1659;51.470;6.770;2023-05-10T11:47:56;19.23;;;10.73;;
3293;SDS011;1659;51.470;6.770;2023-05-10T11:50:23;15.20;;;10.57;;
3293;SDS011;1659;51.470;6.770;2023-05-10T11:52:51;19.13;;;10.17;;
3293;SDS011;1659;51.470;6.770;2023-05-10T11:55:19;16.13;;;9.23;;
3293;SDS011;1659;51.470;6.770;2023-05-10T11:57:46;15.40;;;9.53;;
3293;SDS011;1659;51.470;6.770;2023-05-10T12:00:13;11.70;;;8.13;;
3293;SDS011;1659;51.470;6.770;2023-05-10T12:02:40;13.70;;;8.70;;
3293;SDS011;1659;51.470;6.770;2023-05-10T12:05:08;13.13;;;7.23;;
3293;SDS011;1659;51.470;6.770;2023-05-10T12:07:35;12.40;;;8.07;;
3293;SDS011;1659;51.470;6.770;2023-05-10T12:10:02;14.27;;;8.60;;
3293;SDS011;1659;51.470;6.770;2023-05-10T12:12:36;18.10;;;9.73;;
3293;SDS011;1659;51.470;6.770;2023-05-10T12:15:05;13.13;;;7.93;;
3293;SDS011;1659;51.470;6.770;2023-05-10T12:17:37;12.67;;;7.93;;
3293;SDS011;1659;51.470;6.770;2023-05-10T12:20:13;11.63;;;7.43;;
3293;SDS011;1659;51.470;6.770;2023-05-10T12:22:43;11.37;;;8.30;;
3293;SDS011;1659;51.470;6.770;2023-05-10T12:25:10;9.60;;;6.70;;
3293;SDS011;1659;51.470;6.770;2023-05-10T12:27:38;17.37;;;8.80;;
3293;SDS011;1659;51.470;6.770;2023-05-10T12:30:05;15.07;;;8.43;;
3293;SDS011;1659;51.470;6.770;2023-05-10T12:32:39;12.17;;;7.60;;
3293;SDS011;1659;51.470;6.770;2023-05-10T12:35:07;12.43;;;7.30;;
3293;SDS011;1659;51.470;6.770;2023-05-10T12:37:34;9.13;;;6.90;;
3293;SDS011;1659;51.470;6.770;2023-05-10T12:40:05;12.90;;;7.47;;
3293;SDS011;1659;51.470;6.770;2023-05-10T12:42:33;9.67;;;7.30;;
3293;SDS011;1659;51.470;6.770;2023-05-10T12:45:02;11.83;;;7.50;;
3293;SDS011;1659;51.470;6.770;2023-05-10T12:47:28;10.07;;;7.00;;
3293;SDS011;1659;51.470;6.770;2023-05-10T12:49:55;10.03;;;6.67;;
3293;SDS011;1659;51.470;6.770;2023-05-10T12:52:22;10.70;;;6.17;;
3293;SDS011;1659;51.470;6.770;2023-05-10T12:54:48;8.93;;;6.00;;
3293;SDS011;1659;51.470;6.770;2023-05-10T12:57:15;10.53;;;6.63;;
3293;SDS011;1659;51.470;6.770;2023-05-10T12:59:43;9.90;;;7.10;;
3293;SDS011;1659;51.470;6.770;2023-05-10T13:02:11;11.30;;;6.33;;
3293;SDS011;1659;51.470;6.770;2023-05-10T13:04:38;7.60;;;6.20;;
3293;SDS011;1659;51.470;6.770;2023-05-10T13:07:05;11.70;;;7.50;;
3293;SDS011;1659;51.470;6.770;2023-05-10T13:09:31;13.50;;;6.37;;
3293;SDS011;1659;51.470;6.770;2023-05-10T13:11:58;11.63;;;7.73;;
3293;SDS011;1659;51.470;6.770;2023-05-10T13:14:25;11.30;;;6.60;;
3293;SDS011;1659;51.470;6.770;2023-05-10T13:16:52;12.33;;;7.37;;
3293;SDS011;1659;51.470;6.770;2023-05-10T13:19:20;17.37;;;9.90;;
3293;SDS011;1659;51.470;6.770;2023-05-10T13:21:46;9.73;;;6.63;;
3293;SDS011;1659;51.470;6.770;2023-05-10T13:24:13;11.47;;;6.37;;
3293;SDS011;1659;51.470;6.770;2023-05-10T13:26:39;10.33;;;6.27;;
3293;SDS011;1659;51.470;6.770;2023-05-10T13:29:06;8.30;;;6.27;;
3293;SDS011;1659;51.470;6.770;2023-05-10T13:31:33;14.57;;;6.70;;
3293;SDS011;1659;51.470;6.770;2023-05-10T13:34:00;8.47;;;6.13;;
3293;SDS011;1659;51.470;6.770;2023-05-10T13:36:28;9.13;;;6.03;;
3293;SDS011;1659;51.470;6.770;2023-05-10T13:38:55;7.73;;;5.67;;
3293;SDS011;1659;51.470;6.770;2023-05-10T13:41:22;7.67;;;5.87;;
3293;SDS011;1659;51.470;6.770;2023-05-10T13:43:48;9.63;;;5.80;;
3293;SDS011;1659;51.470;6.770;2023-05-10T13:46:15;8.03;;;6.33;;
3293;SDS011;1659;51.470;6.770;2023-05-10T13:48:41;7.30;;;5.33;;
3293;SDS011;1659;51.470;6.770;2023-05-10T13:51:08;9.33;;;5.37;;
3293;SDS011;1659;51.470;6.770;2023-05-10T13:53:35;7.53;;;6.10;;
3293;SDS011;1659;51.470;6.770;2023-05-10T13:56:02;7.83;;;5.80;;
3293;SDS011;1659;51.470;6.770;2023-05-10T13:58:29;10.20;;;6.83;;
3293;SDS011;1659;51.470;6.770;2023-05-10T14:00:55;7.50;;;5.87;;
3293;SDS011;1659;51.470;6.770;2023-05-10T14:03:22;8.63;;;5.80;;
3293;SDS011;1659;51.470;6.770;2023-05-10T14:05:48;11.83;;;8.13;;
3293;SDS011;1659;51.470;6.770;2023-05-10T14:08:15;15.77;;;9.37;;
3293;SDS011;1659;51.470;6.770;2023-05-10T14:10:44;13.73;;;9.13;;
3293;SDS011;1659;51.470;6.770;2023-05-10T14:13:10;9.90;;;7.73;;
3293;SDS011;1659;51.470;6.770;2023-05-10T14:15:37;12.27;;;8.50;;
3293;SDS011;1659;51.470;6.770;2023-05-10T14:18:03;14.23;;;8.50;;
3293;SDS011;1659;51.470;6.770;2023-05-10T14:20:30;12.73;;;8.73;;
3293;SDS011;1659;51.470;6.770;2023-05-10T14:22:58;10.40;;;8.33;;
3293;SDS011;1659;51.470;6.770;2023-05-10T14:25:25;9.27;;;7.43;;
3293;SDS011;1659;51.470;6.770;2023-05-10T14:27:53;10.33;;;7.57;;
3293;SDS011;1659;51.470;6.770;2023-05-10T14:30:20;11.53;;;7.87;;
3293;SDS011;1659;51.470;6.770;2023-05-10T14:32:46;9.23;;;7.77;;
3293;SDS011;1659;51.470;6.770;2023-05-10T14:35:13;8.77;;;6.77;;
3293;SDS011;1659;51.470;6.770;2023-05-10T14:37:39;10.60;;;8.30;;
3293;SDS011;1659;51.470;6.770;2023-05-10T14:40:06;12.23;;;7.90;;
3293;SDS011;1659;51.470;6.770;2023-05-10T14:42:34;11.30;;;8.00;;
3293;SDS011;1659;51.470;6.770;2023-05-10T14:45:02;8.83;;;7.57;;
3293;SDS011;1659;51.470;6.770;2023-05-10T14:47:29;9.03;;;5.97;;
3293;SDS011;1659;51.470;6.770;2023-05-10T14:49:56;10.70;;;6.77;;
3293;SDS011;1659;51.470;6.770;2023-05-10T14:52:23;13.17;;;8.47;;
3293;SDS011;1659;51.470;6.770;2023-05-10T14:54:49;11.70;;;8.60;;
3293;SDS011;1659;51.470;6.770;2023-05-10T14:57:16;11.50;;;7.80;;
3293;SDS011;1659;51.470;6.770;2023-05-10T14:59:42;14.80;;;9.70;;
3293;SDS011;1659;51.470;6.770;2023-05-10T15:02:10;17.70;;;9.37;;
3293;SDS011;1659;51.470;6.770;2023-05-10T15:04:37;11.07;;;8.37;;